Flugplatz Attendorn-Finnentrop

Für EDKU sind keine METAR/TAF Berichte vorhanden.
Es werden die Flugwettermeldungen vom Flugplatz Dortmund in 47 km Entfernung angezeigt.

Bericht für EDLW

vom 20.10. um 03:50 UTC

Wind 15 kt aus 200°

Sichtweite 10 km oder mehr

gute Sicht, keine Wolken < 5000 ft, keine CB, keine Wettererscheinungen (CAVOK)

Temperatur 15.0°C

Taupunkt 10.0°C

Luftfeuchtigkeit 72%

Luftdruck 1009 hPa

EDLW 200350Z 20015KT CAVOK 15/10 Q1009

Prognose für EDLW

vom 20.10. um 03:20 UTC

Zwischen 04:00 UTC und 00:00 UTC

Wind 14 kt aus 200°

Sichtweite 10 km oder mehr

aufgelockert bewölkt in 3000 ft


Zwischen 09:00 UTC und 17:00 UTC zeitweise

Wind 20 kt aus 220° in Böen 30 kt


Zwischen 17:00 UTC und 00:00 UTC zeitweise mit einer Wahrscheinlichkeit von 30%

Wind 20 kt aus 220° in Böen 35 kt

Code: TSRA

aufgebrochene Bewölkung in 2000 ft


Zwischen 20:00 UTC und 00:00 UTC zeitweise

Regen

TAF EDLW 200320Z 2004/2024 20014KT 9999 SCT030 TEMPO 2009/2017 22020G30KT PROB30 TEMPO 2017/2024 22020G35KT TSRA BKN020CB TEMPO 2020/2024 RA
Impressum